sensor_id;sensor_type;location;lat;lon;timestamp;pressure;altitude;pressure_sealevel;temperature;humidity
27840;BME280;15207;42.182;24.308;2023-02-16T00:00:46;100600.22;;;1.30;73.92
27840;BME280;15207;42.182;24.308;2023-02-16T00:03:19;100609.16;;;1.24;75.08
27840;BME280;15207;42.182;24.308;2023-02-16T00:05:46;100604.66;;;1.29;75.27
27840;BME280;15207;42.182;24.308;2023-02-16T00:08:12;100604.47;;;1.39;74.98
27840;BME280;15207;42.182;24.308;2023-02-16T00:10:38;100594.59;;;1.47;74.39
27840;BME280;15207;42.182;24.308;2023-02-16T00:13:26;100589.16;;;1.11;74.62
27840;BME280;15207;42.182;24.308;2023-02-16T00:16:15;100596.03;;;1.19;74.30
27840;BME280;15207;42.182;24.308;2023-02-16T00:18:41;100594.50;;;1.08;74.48
27840;BME280;15207;42.182;24.308;2023-02-16T00:21:06;100597.19;;;1.06;73.91
27840;BME280;15207;42.182;24.308;2023-02-16T00:23:32;100602.34;;;0.62;76.63
27840;BME280;15207;42.182;24.308;2023-02-16T00:25:57;100592.56;;;0.13;80.90
27840;BME280;15207;42.182;24.308;2023-02-16T00:28:22;100599.56;;;0.15;82.80
27840;BME280;15207;42.182;24.308;2023-02-16T00:30:48;100596.56;;;-0.19;84.47
27840;BME280;15207;42.182;24.308;2023-02-16T00:33:19;100603.53;;;-0.16;85.08
27840;BME280;15207;42.182;24.308;2023-02-16T00:35:45;100599.81;;;-0.01;84.74
27840;BME280;15207;42.182;24.308;2023-02-16T00:38:12;100600.66;;;0.03;84.79
27840;BME280;15207;42.182;24.308;2023-02-16T00:40:37;100598.66;;;0.17;83.10
27840;BME280;15207;42.182;24.308;2023-02-16T00:43:03;100594.97;;;0.29;82.83
27840;BME280;15207;42.182;24.308;2023-02-16T00:45:29;100586.84;;;0.43;81.69
27840;BME280;15207;42.182;24.308;2023-02-16T00:47:57;100592.81;;;0.55;80.55
27840;BME280;15207;42.182;24.308;2023-02-16T00:50:27;100588.28;;;0.63;79.38
27840;BME280;15207;42.182;24.308;2023-02-16T00:52:52;100584.78;;;0.61;79.49
27840;BME280;15207;42.182;24.308;2023-02-16T00:55:21;100588.09;;;0.72;79.37
27840;BME280;15207;42.182;24.308;2023-02-16T00:58:06;100583.22;;;0.49;77.59
27840;BME280;15207;42.182;24.308;2023-02-16T01:00:36;100580.66;;;0.46;77.81
27840;BME280;15207;42.182;24.308;2023-02-16T01:03:07;100583.50;;;0.32;76.57
27840;BME280;15207;42.182;24.308;2023-02-16T01:05:34;100592.28;;;0.34;76.96
27840;BME280;15207;42.182;24.308;2023-02-16T01:07:59;100576.47;;;0.32;76.92
27840;BME280;15207;42.182;24.308;2023-02-16T01:10:44;100572.88;;;0.38;77.92
27840;BME280;15207;42.182;24.308;2023-02-16T01:13:29;100569.19;;;0.48;77.99
27840;BME280;15207;42.182;24.308;2023-02-16T01:15:56;100576.97;;;0.56;76.71
27840;BME280;15207;42.182;24.308;2023-02-16T01:18:21;100581.47;;;0.49;76.92
27840;BME280;15207;42.182;24.308;2023-02-16T01:20:48;100567.56;;;0.39;77.65
27840;BME280;15207;42.182;24.308;2023-02-16T01:23:14;100572.88;;;0.38;77.90
27840;BME280;15207;42.182;24.308;2023-02-16T01:25:40;100562.34;;;0.38;78.29
27840;BME280;15207;42.182;24.308;2023-02-16T01:28:25;100562.28;;;0.39;78.33
27840;BME280;15207;42.182;24.308;2023-02-16T01:30:51;100562.16;;;0.47;77.17
27840;BME280;15207;42.182;24.308;2023-02-16T01:33:17;100568.47;;;0.38;75.71
27840;BME280;15207;42.182;24.308;2023-02-16T01:35:43;100563.66;;;0.10;76.29
27840;BME280;15207;42.182;24.308;2023-02-16T01:38:20;100554.31;;;-0.11;76.51
27840;BME280;15207;42.182;24.308;2023-02-16T01:41:04;100558.00;;;-0.24;76.91
27840;BME280;15207;42.182;24.308;2023-02-16T01:43:43;100559.66;;;-0.17;77.22
27840;BME280;15207;42.182;24.308;2023-02-16T01:46:14;100551.56;;;-0.03;76.56
27840;BME280;15207;42.182;24.308;2023-02-16T01:48:41;100562.25;;;-0.16;77.21
27840;BME280;15207;42.182;24.308;2023-02-16T01:53:51;100555.66;;;-0.45;78.16
27840;BME280;15207;42.182;24.308;2023-02-16T01:56:30;100560.81;;;-0.37;78.40
27840;BME280;15207;42.182;24.308;2023-02-16T01:59:01;100562.34;;;-0.22;78.59
27840;BME280;15207;42.182;24.308;2023-02-16T02:04:37;100558.78;;;-0.18;80.87
27840;BME280;15207;42.182;24.308;2023-02-16T02:07:47;100554.06;;;-0.57;78.44
27840;BME280;15207;42.182;24.308;2023-02-16T02:10:24;100561.47;;;-0.91;79.13
27840;BME280;15207;42.182;24.308;2023-02-16T02:12:55;100548.28;;;-0.85;80.06
27840;BME280;15207;42.182;24.308;2023-02-16T02:15:26;100550.94;;;-0.88;80.65
27840;BME280;15207;42.182;24.308;2023-02-16T02:17:54;100552.00;;;-1.05;81.32
27840;BME280;15207;42.182;24.308;2023-02-16T02:23:22;100544.75;;;-0.84;81.03
27840;BME280;15207;42.182;24.308;2023-02-16T02:31:46;100559.44;;;-0.66;77.88
27840;BME280;15207;42.182;24.308;2023-02-16T02:43:28;100546.97;;;-1.28;82.63
27840;BME280;15207;42.182;24.308;2023-02-16T02:46:00;100556.44;;;-1.10;84.25
27840;BME280;15207;42.182;24.308;2023-02-16T02:48:31;100553.84;;;-1.13;85.39
27840;BME280;15207;42.182;24.308;2023-02-16T02:56:52;100548.38;;;-0.96;87.67
27840;BME280;15207;42.182;24.308;2023-02-16T02:59:43;100549.22;;;-0.91;86.69
27840;BME280;15207;42.182;24.308;2023-02-16T03:02:30;100556.19;;;-0.87;86.42
27840;BME280;15207;42.182;24.308;2023-02-16T03:04:58;100564.09;;;-0.90;86.30
27840;BME280;15207;42.182;24.308;2023-02-16T03:07:25;100555.13;;;-0.73;86.93
27840;BME280;15207;42.182;24.308;2023-02-16T03:10:15;100554.28;;;-0.77;85.81
27840;BME280;15207;42.182;24.308;2023-02-16T03:13:01;100549.72;;;-0.61;85.58
27840;BME280;15207;42.182;24.308;2023-02-16T03:15:29;100554.78;;;-0.47;84.02
27840;BME280;15207;42.182;24.308;2023-02-16T03:17:55;100558.31;;;-0.48;83.76
27840;BME280;15207;42.182;24.308;2023-02-16T03:20:41;100551.63;;;-0.74;80.41
27840;BME280;15207;42.182;24.308;2023-02-16T03:23:26;100553.53;;;-0.85;79.33
27840;BME280;15207;42.182;24.308;2023-02-16T03:26:12;100553.66;;;-0.98;80.92
27840;BME280;15207;42.182;24.308;2023-02-16T03:28:59;100545.88;;;-1.09;82.94
27840;BME280;15207;42.182;24.308;2023-02-16T03:31:42;100539.69;;;-1.04;85.30
27840;BME280;15207;42.182;24.308;2023-02-16T03:34:09;100544.88;;;-0.95;86.33
27840;BME280;15207;42.182;24.308;2023-02-16T03:36:37;100538.75;;;-0.97;85.44
27840;BME280;15207;42.182;24.308;2023-02-16T03:39:04;100544.88;;;-0.98;85.76
27840;BME280;15207;42.182;24.308;2023-02-16T03:41:33;100545.66;;;-0.85;85.92
27840;BME280;15207;42.182;24.308;2023-02-16T03:43:59;100541.59;;;-1.16;84.32
27840;BME280;15207;42.182;24.308;2023-02-16T03:46:25;100547.84;;;-1.29;84.50
27840;BME280;15207;42.182;24.308;2023-02-16T03:48:50;100536.34;;;-1.19;85.46
27840;BME280;15207;42.182;24.308;2023-02-16T03:51:16;100540.75;;;-1.18;86.65
27840;BME280;15207;42.182;24.308;2023-02-16T03:53:41;100544.13;;;-1.08;86.71
27840;BME280;15207;42.182;24.308;2023-02-16T03:56:07;100548.31;;;-0.90;85.67
27840;BME280;15207;42.182;24.308;2023-02-16T03:58:32;100537.97;;;-1.04;84.79
27840;BME280;15207;42.182;24.308;2023-02-16T04:00:58;100543.25;;;-1.07;85.19
27840;BME280;15207;42.182;24.308;2023-02-16T04:03:25;100548.38;;;-0.96;85.20
27840;BME280;15207;42.182;24.308;2023-02-16T04:05:50;100551.91;;;-0.97;85.18
27840;BME280;15207;42.182;24.308;2023-02-16T04:08:16;100543.84;;;-0.83;85.79
27840;BME280;15207;42.182;24.308;2023-02-16T04:10:41;100537.75;;;-0.87;85.82
27840;BME280;15207;42.182;24.308;2023-02-16T04:13:07;100538.66;;;-0.88;86.57
27840;BME280;15207;42.182;24.308;2023-02-16T04:15:33;100540.25;;;-0.76;85.79
27840;BME280;15207;42.182;24.308;2023-02-16T04:17:59;100547.28;;;-0.78;85.82
27840;BME280;15207;42.182;24.308;2023-02-16T04:20:28;100535.94;;;-0.82;86.01
27840;BME280;15207;42.182;24.308;2023-02-16T04:22:54;100540.22;;;-0.74;85.92
27840;BME280;15207;42.182;24.308;2023-02-16T04:25:20;100539.28;;;-0.69;85.47
27840;BME280;15207;42.182;24.308;2023-02-16T04:27:46;100533.84;;;-0.56;85.25
27840;BME280;15207;42.182;24.308;2023-02-16T04:30:17;100530.28;;;-0.50;84.65
27840;BME280;15207;42.182;24.308;2023-02-16T04:32:43;100541.59;;;-0.42;83.98
27840;BME280;15207;42.182;24.308;2023-02-16T04:35:09;100537.19;;;-0.43;83.84
27840;BME280;15207;42.182;24.308;2023-02-16T04:37:35;100542.69;;;-0.60;84.77
27840;BME280;15207;42.182;24.308;2023-02-16T04:40:01;100541.81;;;-0.61;85.29
27840;BME280;15207;42.182;24.308;2023-02-16T04:42:26;100548.81;;;-0.60;84.03
27840;BME280;15207;42.182;24.308;2023-02-16T04:44:52;100552.25;;;-0.51;83.72
27840;BME280;15207;42.182;24.308;2023-02-16T04:47:18;100552.19;;;-0.48;83.60
27840;BME280;15207;42.182;24.308;2023-02-16T04:49:43;100549.00;;;-0.74;83.81
27840;BME280;15207;42.182;24.308;2023-02-16T04:52:11;100561.28;;;-0.74;83.64
27840;BME280;15207;42.182;24.308;2023-02-16T04:54:37;100556.97;;;-0.80;82.48
27840;BME280;15207;42.182;24.308;2023-02-16T04:57:02;100558.94;;;-0.99;81.67
27840;BME280;15207;42.182;24.308;2023-02-16T04:59:28;100568.69;;;-1.09;81.41
27840;BME280;15207;42.182;24.308;2023-02-16T05:01:53;100561.06;;;-1.33;81.43
27840;BME280;15207;42.182;24.308;2023-02-16T05:04:19;100558.53;;;-1.47;82.01
27840;BME280;15207;42.182;24.308;2023-02-16T05:06:44;100558.50;;;-1.40;82.62
27840;BME280;15207;42.182;24.308;2023-02-16T05:09:10;100565.56;;;-1.45;82.58
27840;BME280;15207;42.182;24.308;2023-02-16T05:11:35;100565.50;;;-1.42;82.89
27840;BME280;15207;42.182;24.308;2023-02-16T05:14:25;100570.69;;;-1.35;82.14
27840;BME280;15207;42.182;24.308;2023-02-16T05:17:24;100569.78;;;-1.29;82.18
27840;BME280;15207;42.182;24.308;2023-02-16T05:19:50;100580.19;;;-1.20;82.17
27840;BME280;15207;42.182;24.308;2023-02-16T05:22:17;100576.63;;;-1.14;81.77
27840;BME280;15207;42.182;24.308;2023-02-16T05:24:44;100569.72;;;-1.24;81.58
27840;BME280;15207;42.182;24.308;2023-02-16T05:27:18;100570.59;;;-1.24;82.21
27840;BME280;15207;42.182;24.308;2023-02-16T05:29:44;100567.22;;;-1.35;80.98
27840;BME280;15207;42.182;24.308;2023-02-16T05:32:10;100578.44;;;-1.21;81.29
27840;BME280;15207;42.182;24.308;2023-02-16T05:34:36;100576.75;;;-1.25;81.98
27840;BME280;15207;42.182;24.308;2023-02-16T05:37:01;100582.84;;;-1.20;82.65
27840;BME280;15207;42.182;24.308;2023-02-16T05:39:27;100591.47;;;-1.08;83.06
27840;BME280;15207;42.182;24.308;2023-02-16T05:41:53;100587.28;;;-1.26;83.10
27840;BME280;15207;42.182;24.308;2023-02-16T05:44:18;100585.53;;;-1.29;83.10
27840;BME280;15207;42.182;24.308;2023-02-16T05:46:44;100585.56;;;-1.30;83.72
27840;BME280;15207;42.182;24.308;2023-02-16T05:49:11;100591.72;;;-1.31;82.94
27840;BME280;15207;42.182;24.308;2023-02-16T05:51:37;100591.72;;;-1.33;82.19
27840;BME280;15207;42.182;24.308;2023-02-16T05:54:03;100592.69;;;-1.42;81.53
27840;BME280;15207;42.182;24.308;2023-02-16T05:56:29;100596.19;;;-1.43;82.11
27840;BME280;15207;42.182;24.308;2023-02-16T05:58:55;100591.72;;;-1.31;82.14
27840;BME280;15207;42.182;24.308;2023-02-16T06:01:21;100595.16;;;-1.28;83.52
27840;BME280;15207;42.182;24.308;2023-02-16T06:03:48;100597.63;;;-1.11;82.89
27840;BME280;15207;42.182;24.308;2023-02-16T06:06:13;100607.28;;;-1.11;83.12
27840;BME280;15207;42.182;24.308;2023-02-16T06:08:39;100599.38;;;-1.08;82.60
27840;BME280;15207;42.182;24.308;2023-02-16T06:11:05;100595.47;;;-0.73;82.39
27840;BME280;15207;42.182;24.308;2023-02-16T06:13:32;100592.53;;;-0.48;81.24
27840;BME280;15207;42.182;24.308;2023-02-16T06:15:59;100595.91;;;-0.38;80.66
27840;BME280;15207;42.182;24.308;2023-02-16T06:18:25;100600.19;;;-0.28;80.03
27840;BME280;15207;42.182;24.308;2023-02-16T06:20:51;100607.00;;;-0.11;79.61
27840;BME280;15207;42.182;24.308;2023-02-16T06:23:17;100606.00;;;-0.04;80.72
27840;BME280;15207;42.182;24.308;2023-02-16T06:25:43;100608.06;;;0.35;80.13
27840;BME280;15207;42.182;24.308;2023-02-16T06:28:10;100603.06;;;0.72;79.19
27840;BME280;15207;42.182;24.308;2023-02-16T06:30:35;100611.53;;;0.89;78.27
27840;BME280;15207;42.182;24.308;2023-02-16T06:33:01;100612.00;;;1.13;77.84
27840;BME280;15207;42.182;24.308;2023-02-16T06:35:27;100607.34;;;1.26;78.29
27840;BME280;15207;42.182;24.308;2023-02-16T06:37:53;100607.91;;;1.42;77.73
27840;BME280;15207;42.182;24.308;2023-02-16T06:40:19;100615.13;;;1.78;77.99
27840;BME280;15207;42.182;24.308;2023-02-16T06:42:44;100613.44;;;2.14;77.30
27840;BME280;15207;42.182;24.308;2023-02-16T06:45:10;100617.53;;;2.27;77.01
27840;BME280;15207;42.182;24.308;2023-02-16T06:47:36;100609.50;;;2.32;77.24
27840;BME280;15207;42.182;24.308;2023-02-16T06:50:04;100619.88;;;2.41;77.47
27840;BME280;15207;42.182;24.308;2023-02-16T06:52:30;100615.03;;;2.57;76.89
27840;BME280;15207;42.182;24.308;2023-02-16T06:54:56;100616.47;;;2.71;76.58
27840;BME280;15207;42.182;24.308;2023-02-16T06:57:21;100617.56;;;2.97;76.52
27840;BME280;15207;42.182;24.308;2023-02-16T06:59:47;100616.19;;;3.16;75.64
27840;BME280;15207;42.182;24.308;2023-02-16T07:02:13;100613.19;;;3.29;74.74
27840;BME280;15207;42.182;24.308;2023-02-16T07:04:39;100623.22;;;3.49;74.40
27840;BME280;15207;42.182;24.308;2023-02-16T07:07:04;100606.09;;;3.61;73.05
27840;BME280;15207;42.182;24.308;2023-02-16T07:09:30;100614.94;;;3.62;72.79
27840;BME280;15207;42.182;24.308;2023-02-16T07:11:55;100613.16;;;3.61;72.59
27840;BME280;15207;42.182;24.308;2023-02-16T07:14:21;100610.38;;;3.67;72.30
27840;BME280;15207;42.182;24.308;2023-02-16T07:16:47;100613.91;;;3.96;72.19
27840;BME280;15207;42.182;24.308;2023-02-16T07:19:12;100613.78;;;4.01;70.90
27840;BME280;15207;42.182;24.308;2023-02-16T07:21:38;100610.34;;;3.97;70.92
27840;BME280;15207;42.182;24.308;2023-02-16T07:24:04;100611.94;;;4.03;71.05
27840;BME280;15207;42.182;24.308;2023-02-16T07:26:30;100617.84;;;4.13;71.00
27840;BME280;15207;42.182;24.308;2023-02-16T07:28:56;100622.13;;;4.17;70.63
27840;BME280;15207;42.182;24.308;2023-02-16T07:31:21;100627.22;;;4.23;70.50
27840;BME280;15207;42.182;24.308;2023-02-16T07:33:50;100626.16;;;4.29;70.53
27840;BME280;15207;42.182;24.308;2023-02-16T07:36:16;100616.63;;;4.50;69.66
27840;BME280;15207;42.182;24.308;2023-02-16T07:38:41;100616.13;;;4.66;69.56
27840;BME280;15207;42.182;24.308;2023-02-16T07:41:07;100626.28;;;4.80;68.57
27840;BME280;15207;42.182;24.308;2023-02-16T07:43:33;100631.56;;;5.07;67.75
27840;BME280;15207;42.182;24.308;2023-02-16T07:45:59;100627.72;;;5.15;66.91
27840;BME280;15207;42.182;24.308;2023-02-16T07:48:25;100630.97;;;5.24;66.67
27840;BME280;15207;42.182;24.308;2023-02-16T07:50:50;100626.97;;;5.37;66.19
27840;BME280;15207;42.182;24.308;2023-02-16T07:53:16;100623.94;;;5.47;66.03
27840;BME280;15207;42.182;24.308;2023-02-16T07:55:43;100628.97;;;5.78;64.96
27840;BME280;15207;42.182;24.308;2023-02-16T07:58:10;100628.97;;;6.02;63.72
27840;BME280;15207;42.182;24.308;2023-02-16T08:00:35;100625.16;;;6.09;62.86
27840;BME280;15207;42.182;24.308;2023-02-16T08:03:02;100632.03;;;6.15;62.21
27840;BME280;15207;42.182;24.308;2023-02-16T08:05:28;100627.81;;;6.09;61.91
27840;BME280;15207;42.182;24.308;2023-02-16T08:07:53;100623.13;;;6.16;62.31
27840;BME280;15207;42.182;24.308;2023-02-16T08:10:19;100624.63;;;6.24;61.54
27840;BME280;15207;42.182;24.308;2023-02-16T08:12:45;100620.34;;;5.95;61.40
27840;BME280;15207;42.182;24.308;2023-02-16T08:15:10;100623.75;;;5.99;61.83
27840;BME280;15207;42.182;24.308;2023-02-16T08:17:36;100615.41;;;6.10;61.44
27840;BME280;15207;42.182;24.308;2023-02-16T08:20:03;100618.44;;;6.23;60.46
27840;BME280;15207;42.182;24.308;2023-02-16T08:22:29;100616.50;;;6.49;59.40
27840;BME280;15207;42.182;24.308;2023-02-16T08:24:55;100608.88;;;6.62;57.51
27840;BME280;15207;42.182;24.308;2023-02-16T08:27:20;100608.50;;;6.92;56.43
27840;BME280;15207;42.182;24.308;2023-02-16T08:29:46;100609.00;;;7.02;55.59
27840;BME280;15207;42.182;24.308;2023-02-16T08:32:12;100605.53;;;7.21;56.09
27840;BME280;15207;42.182;24.308;2023-02-16T08:34:39;100604.84;;;7.36;55.58
27840;BME280;15207;42.182;24.308;2023-02-16T08:37:05;100596.28;;;7.49;53.72
27840;BME280;15207;42.182;24.308;2023-02-16T08:39:31;100601.13;;;7.79;53.38
27840;BME280;15207;42.182;24.308;2023-02-16T08:41:59;100594.94;;;8.34;51.29
27840;BME280;15207;42.182;24.308;2023-02-16T08:44:25;100598.38;;;8.37;50.51
27840;BME280;15207;42.182;24.308;2023-02-16T08:46:54;100587.97;;;8.50;49.77
27840;BME280;15207;42.182;24.308;2023-02-16T08:49:21;100583.53;;;8.68;49.34
27840;BME280;15207;42.182;24.308;2023-02-16T08:51:54;100589.66;;;8.88;48.51
27840;BME280;15207;42.182;24.308;2023-02-16T08:54:22;100596.75;;;8.89;48.46
27840;BME280;15207;42.182;24.308;2023-02-16T08:56:50;100591.88;;;8.79;48.21
27840;BME280;15207;42.182;24.308;2023-02-16T08:59:18;100590.28;;;8.57;48.38
27840;BME280;15207;42.182;24.308;2023-02-16T09:01:44;100589.84;;;8.84;48.11
27840;BME280;15207;42.182;24.308;2023-02-16T09:04:10;100597.00;;;8.47;48.08
27840;BME280;15207;42.182;24.308;2023-02-16T09:06:39;100596.34;;;8.42;48.42
27840;BME280;15207;42.182;24.308;2023-02-16T09:09:06;100585.66;;;8.79;48.03
27840;BME280;15207;42.182;24.308;2023-02-16T09:11:33;100589.47;;;9.26;46.92
27840;BME280;15207;42.182;24.308;2023-02-16T09:13:59;100585.28;;;9.38;46.64
27840;BME280;15207;42.182;24.308;2023-02-16T09:16:25;100585.25;;;9.04;46.71
27840;BME280;15207;42.182;24.308;2023-02-16T09:18:53;100590.91;;;9.49;45.63
27840;BME280;15207;42.182;24.308;2023-02-16T09:21:23;100578.84;;;9.58;44.51
27840;BME280;15207;42.182;24.308;2023-02-16T09:23:50;100585.09;;;9.75;44.73
27840;BME280;15207;42.182;24.308;2023-02-16T09:26:20;100578.25;;;10.17;42.92
27840;BME280;15207;42.182;24.308;2023-02-16T09:28:47;100580.56;;;10.40;42.40
27840;BME280;15207;42.182;24.308;2023-02-16T09:31:25;100572.56;;;10.70;42.59
27840;BME280;15207;42.182;24.308;2023-02-16T09:34:05;100569.81;;;10.72;42.07
27840;BME280;15207;42.182;24.308;2023-02-16T09:36:32;100572.28;;;10.75;42.17
27840;BME280;15207;42.182;24.308;2023-02-16T09:38:58;100566.97;;;10.90;41.62
27840;BME280;15207;42.182;24.308;2023-02-16T09:42:09;100560.41;;;11.10;41.21
27840;BME280;15207;42.182;24.308;2023-02-16T09:44:19;100566.13;;;11.33;40.40
27840;BME280;15207;42.182;24.308;2023-02-16T09:46:47;100560.13;;;11.44;40.32
27840;BME280;15207;42.182;24.308;2023-02-16T09:49:24;100551.84;;;11.47;40.11
27840;BME280;15207;42.182;24.308;2023-02-16T09:52:03;100547.88;;;11.82;39.95
27840;BME280;15207;42.182;24.308;2023-02-16T10:05:33;100542.06;;;11.60;39.84
27840;BME280;15207;42.182;24.308;2023-02-16T10:08:08;100537.91;;;11.13;39.94
27840;BME280;15207;42.182;24.308;2023-02-16T10:13:21;100531.97;;;11.07;40.75
27840;BME280;15207;42.182;24.308;2023-02-16T10:15:51;100524.50;;;11.27;40.59
27840;BME280;15207;42.182;24.308;2023-02-16T10:18:34;100531.00;;;11.08;40.98
27840;BME280;15207;42.182;24.308;2023-02-16T10:21:07;100525.50;;;10.81;41.40
27840;BME280;15207;42.182;24.308;2023-02-16T10:23:47;100511.56;;;11.05;41.67
27840;BME280;15207;42.182;24.308;2023-02-16T10:26:19;100518.16;;;11.14;41.39
27840;BME280;15207;42.182;24.308;2023-02-16T10:28:54;100516.94;;;11.05;42.40
27840;BME280;15207;42.182;24.308;2023-02-16T10:42:44;100503.72;;;11.16;41.62
27840;BME280;15207;42.182;24.308;2023-02-16T10:45:24;100509.25;;;11.13;41.72
27840;BME280;15207;42.182;24.308;2023-02-16T10:47:50;100503.03;;;11.27;41.79
27840;BME280;15207;42.182;24.308;2023-02-16T10:50:24;100500.22;;;11.43;41.79
27840;BME280;15207;42.182;24.308;2023-02-16T10:52:55;100493.78;;;11.60;41.93
27840;BME280;15207;42.182;24.308;2023-02-16T10:55:22;100491.91;;;11.33;42.17
27840;BME280;15207;42.182;24.308;2023-02-16T10:57:52;100485.34;;;11.52;41.80
27840;BME280;15207;42.182;24.308;2023-02-16T11:00:23;100486.69;;;11.59;41.82
27840;BME280;15207;42.182;24.308;2023-02-16T11:02:51;100477.56;;;11.76;41.64
27840;BME280;15207;42.182;24.308;2023-02-16T11:05:28;100483.06;;;11.46;41.73
27840;BME280;15207;42.182;24.308;2023-02-16T11:07:56;100480.69;;;11.41;41.52
27840;BME280;15207;42.182;24.308;2023-02-16T11:11:00;100480.16;;;11.21;41.89
27840;BME280;15207;42.182;24.308;2023-02-16T11:13:32;100477.53;;;11.34;42.12
27840;BME280;15207;42.182;24.308;2023-02-16T11:16:09;100470.78;;;11.56;41.94
27840;BME280;15207;42.182;24.308;2023-02-16T11:18:38;100470.00;;;11.12;42.74
27840;BME280;15207;42.182;24.308;2023-02-16T11:21:05;100468.69;;;11.47;42.53
27840;BME280;15207;42.182;24.308;2023-02-16T11:23:35;100462.19;;;11.36;42.15
27840;BME280;15207;42.182;24.308;2023-02-16T11:26:03;100459.34;;;11.40;42.13
27840;BME280;15207;42.182;24.308;2023-02-16T11:34:02;100443.25;;;11.67;41.35
27840;BME280;15207;42.182;24.308;2023-02-16T11:41:43;100431.50;;;11.83;41.01
27840;BME280;15207;42.182;24.308;2023-02-16T11:47:00;100421.41;;;11.86;40.28
27840;BME280;15207;42.182;24.308;2023-02-16T11:51:57;100415.16;;;12.00;41.04
27840;BME280;15207;42.182;24.308;2023-02-16T11:54:23;100421.09;;;11.78;40.61
27840;BME280;15207;42.182;24.308;2023-02-16T11:57:06;100416.88;;;11.74;40.29
27840;BME280;15207;42.182;24.308;2023-02-16T11:59:36;100401.00;;;11.84;40.65
27840;BME280;15207;42.182;24.308;2023-02-16T12:02:35;100401.22;;;12.08;40.03
27840;BME280;15207;42.182;24.308;2023-02-16T12:13:25;100388.91;;;12.45;40.12
27840;BME280;15207;42.182;24.308;2023-02-16T12:18:29;100383.56;;;12.04;39.04
27840;BME280;15207;42.182;24.308;2023-02-16T12:28:52;100372.34;;;12.38;39.63
27840;BME280;15207;42.182;24.308;2023-02-16T12:31:40;100362.56;;;12.24;39.45
27840;BME280;15207;42.182;24.308;2023-02-16T12:36:56;100350.09;;;12.10;39.68
27840;BME280;15207;42.182;24.308;2023-02-16T12:39:30;100353.50;;;11.99;39.66
27840;BME280;15207;42.182;24.308;2023-02-16T12:42:30;100354.72;;;12.08;39.43
27840;BME280;15207;42.182;24.308;2023-02-16T12:45:02;100346.66;;;11.67;39.65
27840;BME280;15207;42.182;24.308;2023-02-16T12:47:36;100342.50;;;11.76;39.77
27840;BME280;15207;42.182;24.308;2023-02-16T12:50:14;100337.69;;;11.94;39.86
27840;BME280;15207;42.182;24.308;2023-02-16T12:52:51;100332.94;;;12.12;39.76
27840;BME280;15207;42.182;24.308;2023-02-16T13:00:40;100330.53;;;12.60;38.27
27840;BME280;15207;42.182;24.308;2023-02-16T13:03:21;100327.44;;;12.53;37.91
27840;BME280;15207;42.182;24.308;2023-02-16T13:06:06;100325.50;;;12.55;38.13
27840;BME280;15207;42.182;24.308;2023-02-16T13:08:49;100321.31;;;12.51;38.44
27840;BME280;15207;42.182;24.308;2023-02-16T13:14:02;100316.56;;;12.41;38.27
27840;BME280;15207;42.182;24.308;2023-02-16T13:16:43;100311.63;;;12.48;38.14
27840;BME280;15207;42.182;24.308;2023-02-16T13:19:14;100307.31;;;12.59;37.94
27840;BME280;15207;42.182;24.308;2023-02-16T13:22:37;100299.59;;;12.54;37.72
27840;BME280;15207;42.182;24.308;2023-02-16T13:32:44;100288.28;;;12.99;36.69
27840;BME280;15207;42.182;24.308;2023-02-16T13:41:11;100289.69;;;12.54;37.35
27840;BME280;15207;42.182;24.308;2023-02-16T13:43:49;100280.53;;;12.57;37.02
27840;BME280;15207;42.182;24.308;2023-02-16T13:46:25;100286.59;;;12.48;37.31
27840;BME280;15207;42.182;24.308;2023-02-16T13:48:52;100284.88;;;12.47;37.46
27840;BME280;15207;42.182;24.308;2023-02-16T13:51:23;100280.91;;;12.52;37.33
27840;BME280;15207;42.182;24.308;2023-02-16T14:01:45;100273.22;;;12.72;37.32
27840;BME280;15207;42.182;24.308;2023-02-16T14:06:50;100275.13;;;12.70;37.44
27840;BME280;15207;42.182;24.308;2023-02-16T14:19:53;100269.59;;;12.60;37.25
27840;BME280;15207;42.182;24.308;2023-02-16T14:22:56;100263.09;;;12.76;37.01
27840;BME280;15207;42.182;24.308;2023-02-16T14:34:11;100249.91;;;12.73;37.65
27840;BME280;15207;42.182;24.308;2023-02-16T14:36:26;100254.41;;;12.72;37.45
27840;BME280;15207;42.182;24.308;2023-02-16T14:38:54;100248.50;;;12.67;37.53
27840;BME280;15207;42.182;24.308;2023-02-16T14:43:53;100234.09;;;12.68;37.38
27840;BME280;15207;42.182;24.308;2023-02-16T15:03:24;100234.31;;;12.14;38.12
27840;BME280;15207;42.182;24.308;2023-02-16T15:08:20;100240.13;;;12.21;38.17
27840;BME280;15207;42.182;24.308;2023-02-16T15:10:49;100240.66;;;12.26;38.77
27840;BME280;15207;42.182;24.308;2023-02-16T15:13:27;100247.41;;;12.19;38.50
27840;BME280;15207;42.182;24.308;2023-02-16T15:15:55;100237.88;;;12.15;38.44
27840;BME280;15207;42.182;24.308;2023-02-16T15:18:24;100242.56;;;12.11;38.54
27840;BME280;15207;42.182;24.308;2023-02-16T15:20:53;100241.81;;;11.96;38.95
27840;BME280;15207;42.182;24.308;2023-02-16T15:23:23;100241.38;;;11.89;39.04
27840;BME280;15207;42.182;24.308;2023-02-16T15:28:22;100238.91;;;11.86;39.13
27840;BME280;15207;42.182;24.308;2023-02-16T15:35:56;100254.47;;;11.68;39.76
27840;BME280;15207;42.182;24.308;2023-02-16T15:38:36;100251.75;;;11.55;39.91
27840;BME280;15207;42.182;24.308;2023-02-16T15:41:10;100243.50;;;11.45;39.88
27840;BME280;15207;42.182;24.308;2023-02-16T15:43:46;100243.25;;;11.35;40.32
27840;BME280;15207;42.182;24.308;2023-02-16T15:46:33;100252.59;;;11.43;40.34
27840;BME280;15207;42.182;24.308;2023-02-16T15:49:13;100243.84;;;11.26;40.58
27840;BME280;15207;42.182;24.308;2023-02-16T15:51:40;100245.59;;;11.27;40.77